sensor_id;sensor_type;location;lat;lon;timestamp;P1;durP1;ratioP1;P2;durP2;ratioP2
21215;SDS011;10765;50.954;5.322;2022-09-03T00:00:40;2.27;;;1.73;;
21215;SDS011;10765;50.954;5.322;2022-09-03T00:03:11;3.10;;;1.40;;
21215;SDS011;10765;50.954;5.322;2022-09-03T00:05:46;2.40;;;1.60;;
21215;SDS011;10765;50.954;5.322;2022-09-03T00:08:17;1.70;;;1.60;;
21215;SDS011;10765;50.954;5.322;2022-09-03T00:10:50;3.60;;;1.73;;
21215;SDS011;10765;50.954;5.322;2022-09-03T00:13:22;2.20;;;1.70;;
21215;SDS011;10765;50.954;5.322;2022-09-03T00:15:52;1.60;;;1.50;;
21215;SDS011;10765;50.954;5.322;2022-09-03T00:18:24;2.53;;;1.40;;
21215;SDS011;10765;50.954;5.322;2022-09-03T00:20:56;4.37;;;1.50;;
21215;SDS011;10765;50.954;5.322;2022-09-03T00:23:32;2.20;;;1.50;;
21215;SDS011;10765;50.954;5.322;2022-09-03T00:26:05;1.63;;;1.37;;
21215;SDS011;10765;50.954;5.322;2022-09-03T00:28:41;2.17;;;1.50;;
21215;SDS011;10765;50.954;5.322;2022-09-03T00:31:14;3.70;;;1.60;;
21215;SDS011;10765;50.954;5.322;2022-09-03T00:33:46;1.70;;;1.60;;
21215;SDS011;10765;50.954;5.322;2022-09-03T00:36:18;1.63;;;1.47;;
21215;SDS011;10765;50.954;5.322;2022-09-03T00:38:47;3.87;;;1.70;;
21215;SDS011;10765;50.954;5.322;2022-09-03T00:41:17;1.87;;;1.57;;
21215;SDS011;10765;50.954;5.322;2022-09-03T00:44:09;3.57;;;1.70;;
21215;SDS011;10765;50.954;5.322;2022-09-03T00:46:46;1.93;;;1.50;;
21215;SDS011;10765;50.954;5.322;2022-09-03T00:49:21;4.10;;;1.40;;
21215;SDS011;10765;50.954;5.322;2022-09-03T00:52:00;2.70;;;1.73;;
21215;SDS011;10765;50.954;5.322;2022-09-03T00:54:34;3.40;;;1.70;;
21215;SDS011;10765;50.954;5.322;2022-09-03T00:57:10;1.90;;;1.70;;
21215;SDS011;10765;50.954;5.322;2022-09-03T00:59:51;1.47;;;1.33;;
21215;SDS011;10765;50.954;5.322;2022-09-03T01:02:26;1.67;;;1.50;;
21215;SDS011;10765;50.954;5.322;2022-09-03T01:05:04;2.13;;;1.60;;
21215;SDS011;10765;50.954;5.322;2022-09-03T01:07:39;2.97;;;1.60;;
21215;SDS011;10765;50.954;5.322;2022-09-03T01:10:15;1.93;;;1.60;;
21215;SDS011;10765;50.954;5.322;2022-09-03T01:12:54;2.30;;;1.50;;
21215;SDS011;10765;50.954;5.322;2022-09-03T01:15:27;2.03;;;1.33;;
21215;SDS011;10765;50.954;5.322;2022-09-03T01:18:02;1.77;;;1.40;;
21215;SDS011;10765;50.954;5.322;2022-09-03T01:20:45;4.63;;;1.83;;
21215;SDS011;10765;50.954;5.322;2022-09-03T01:26:26;2.53;;;1.80;;
21215;SDS011;10765;50.954;5.322;2022-09-03T01:29:02;2.30;;;1.80;;
21215;SDS011;10765;50.954;5.322;2022-09-03T01:31:42;3.00;;;1.70;;
21215;SDS011;10765;50.954;5.322;2022-09-03T01:34:15;3.00;;;1.80;;
21215;SDS011;10765;50.954;5.322;2022-09-03T01:36:51;1.87;;;1.40;;
21215;SDS011;10765;50.954;5.322;2022-09-03T01:39:27;1.60;;;1.50;;
21215;SDS011;10765;50.954;5.322;2022-09-03T01:42:06;4.57;;;1.70;;
21215;SDS011;10765;50.954;5.322;2022-09-03T01:44:49;5.23;;;1.50;;
21215;SDS011;10765;50.954;5.322;2022-09-03T01:47:40;1.63;;;1.50;;
21215;SDS011;10765;50.954;5.322;2022-09-03T01:50:18;2.33;;;1.37;;
21215;SDS011;10765;50.954;5.322;2022-09-03T01:52:54;1.67;;;1.53;;
21215;SDS011;10765;50.954;5.322;2022-09-03T01:55:29;1.50;;;1.40;;
21215;SDS011;10765;50.954;5.322;2022-09-03T01:58:04;1.60;;;1.50;;
21215;SDS011;10765;50.954;5.322;2022-09-03T02:00:38;3.17;;;1.53;;
21215;SDS011;10765;50.954;5.322;2022-09-03T02:03:09;1.50;;;1.40;;
21215;SDS011;10765;50.954;5.322;2022-09-03T02:05:37;2.30;;;1.70;;
21215;SDS011;10765;50.954;5.322;2022-09-03T02:08:08;2.43;;;1.70;;
21215;SDS011;10765;50.954;5.322;2022-09-03T02:10:37;5.70;;;1.77;;
21215;SDS011;10765;50.954;5.322;2022-09-03T02:13:07;2.40;;;1.50;;
21215;SDS011;10765;50.954;5.322;2022-09-03T02:15:38;2.50;;;1.70;;
21215;SDS011;10765;50.954;5.322;2022-09-03T02:18:09;3.10;;;1.60;;
21215;SDS011;10765;50.954;5.322;2022-09-03T02:20:40;1.90;;;1.57;;
21215;SDS011;10765;50.954;5.322;2022-09-03T02:23:07;3.60;;;1.50;;
21215;SDS011;10765;50.954;5.322;2022-09-03T02:25:35;2.50;;;1.60;;
21215;SDS011;10765;50.954;5.322;2022-09-03T02:28:05;1.90;;;1.50;;
21215;SDS011;10765;50.954;5.322;2022-09-03T02:30:34;2.30;;;1.63;;
21215;SDS011;10765;50.954;5.322;2022-09-03T02:33:02;1.40;;;1.30;;
21215;SDS011;10765;50.954;5.322;2022-09-03T02:35:29;1.93;;;1.40;;
21215;SDS011;10765;50.954;5.322;2022-09-03T02:37:56;2.43;;;1.50;;
21215;SDS011;10765;50.954;5.322;2022-09-03T02:40:33;1.90;;;1.70;;
21215;SDS011;10765;50.954;5.322;2022-09-03T02:43:00;1.47;;;1.37;;
21215;SDS011;10765;50.954;5.322;2022-09-03T02:45:28;4.57;;;1.50;;
21215;SDS011;10765;50.954;5.322;2022-09-03T02:47:58;1.37;;;1.20;;
21215;SDS011;10765;50.954;5.322;2022-09-03T02:50:26;1.83;;;1.43;;
21215;SDS011;10765;50.954;5.322;2022-09-03T02:52:53;2.00;;;1.40;;
21215;SDS011;10765;50.954;5.322;2022-09-03T02:55:20;4.77;;;1.70;;
21215;SDS011;10765;50.954;5.322;2022-09-03T02:57:47;1.93;;;1.60;;
21215;SDS011;10765;50.954;5.322;2022-09-03T03:00:14;3.63;;;1.57;;
21215;SDS011;10765;50.954;5.322;2022-09-03T03:02:42;2.37;;;1.50;;
21215;SDS011;10765;50.954;5.322;2022-09-03T03:05:11;2.47;;;1.63;;
21215;SDS011;10765;50.954;5.322;2022-09-03T03:07:48;2.90;;;1.40;;
21215;SDS011;10765;50.954;5.322;2022-09-03T03:10:15;1.93;;;1.73;;
21215;SDS011;10765;50.954;5.322;2022-09-03T03:12:42;2.70;;;1.50;;
21215;SDS011;10765;50.954;5.322;2022-09-03T03:15:09;1.67;;;1.53;;
21215;SDS011;10765;50.954;5.322;2022-09-03T03:17:36;1.50;;;1.40;;
21215;SDS011;10765;50.954;5.322;2022-09-03T03:20:03;1.43;;;1.30;;
21215;SDS011;10765;50.954;5.322;2022-09-03T03:22:30;4.17;;;1.60;;
21215;SDS011;10765;50.954;5.322;2022-09-03T03:24:58;1.60;;;1.50;;
21215;SDS011;10765;50.954;5.322;2022-09-03T03:27:25;1.80;;;1.70;;
21215;SDS011;10765;50.954;5.322;2022-09-03T03:29:52;1.97;;;1.40;;
21215;SDS011;10765;50.954;5.322;2022-09-03T03:32:19;2.63;;;1.70;;
21215;SDS011;10765;50.954;5.322;2022-09-03T03:34:46;2.67;;;1.60;;
21215;SDS011;10765;50.954;5.322;2022-09-03T03:37:12;1.50;;;1.40;;
21215;SDS011;10765;50.954;5.322;2022-09-03T03:39:39;3.03;;;1.53;;
21215;SDS011;10765;50.954;5.322;2022-09-03T03:42:08;5.00;;;1.50;;
21215;SDS011;10765;50.954;5.322;2022-09-03T03:44:34;2.63;;;1.70;;
21215;SDS011;10765;50.954;5.322;2022-09-03T03:47:01;1.93;;;1.50;;
21215;SDS011;10765;50.954;5.322;2022-09-03T03:49:30;1.83;;;1.50;;
21215;SDS011;10765;50.954;5.322;2022-09-03T03:51:56;2.63;;;1.77;;
21215;SDS011;10765;50.954;5.322;2022-09-03T03:54:23;1.77;;;1.37;;
21215;SDS011;10765;50.954;5.322;2022-09-03T03:56:51;2.00;;;1.50;;
21215;SDS011;10765;50.954;5.322;2022-09-03T03:59:19;4.10;;;1.37;;
21215;SDS011;10765;50.954;5.322;2022-09-03T04:01:46;1.97;;;1.50;;
21215;SDS011;10765;50.954;5.322;2022-09-03T04:04:14;4.27;;;1.90;;
21215;SDS011;10765;50.954;5.322;2022-09-03T04:06:42;3.03;;;1.77;;
21215;SDS011;10765;50.954;5.322;2022-09-03T04:09:08;4.57;;;1.50;;
21215;SDS011;10765;50.954;5.322;2022-09-03T04:11:35;1.73;;;1.53;;
21215;SDS011;10765;50.954;5.322;2022-09-03T04:14:03;2.73;;;1.40;;
21215;SDS011;10765;50.954;5.322;2022-09-03T04:16:31;1.90;;;1.70;;
21215;SDS011;10765;50.954;5.322;2022-09-03T04:18:58;2.37;;;1.30;;
21215;SDS011;10765;50.954;5.322;2022-09-03T04:21:26;3.27;;;1.50;;
21215;SDS011;10765;50.954;5.322;2022-09-03T04:23:54;3.50;;;1.70;;
21215;SDS011;10765;50.954;5.322;2022-09-03T04:26:23;2.80;;;1.63;;
21215;SDS011;10765;50.954;5.322;2022-09-03T04:28:51;3.30;;;1.60;;
21215;SDS011;10765;50.954;5.322;2022-09-03T04:31:18;2.43;;;1.70;;
21215;SDS011;10765;50.954;5.322;2022-09-03T04:33:47;1.97;;;1.37;;
21215;SDS011;10765;50.954;5.322;2022-09-03T04:36:16;1.70;;;1.30;;
21215;SDS011;10765;50.954;5.322;2022-09-03T04:38:45;5.03;;;1.60;;
21215;SDS011;10765;50.954;5.322;2022-09-03T04:41:14;1.87;;;1.43;;
21215;SDS011;10765;50.954;5.322;2022-09-03T04:43:43;2.83;;;1.60;;
21215;SDS011;10765;50.954;5.322;2022-09-03T04:46:11;2.97;;;1.50;;
21215;SDS011;10765;50.954;5.322;2022-09-03T04:48:39;4.60;;;1.50;;
21215;SDS011;10765;50.954;5.322;2022-09-03T04:51:07;3.23;;;1.50;;
21215;SDS011;10765;50.954;5.322;2022-09-03T04:53:38;2.73;;;1.70;;
21215;SDS011;10765;50.954;5.322;2022-09-03T04:56:11;1.83;;;1.60;;
21215;SDS011;10765;50.954;5.322;2022-09-03T04:58:38;6.03;;;1.60;;
21215;SDS011;10765;50.954;5.322;2022-09-03T05:01:07;3.00;;;1.83;;
21215;SDS011;10765;50.954;5.322;2022-09-03T05:03:34;3.73;;;1.60;;
21215;SDS011;10765;50.954;5.322;2022-09-03T05:06:02;2.37;;;1.60;;
21215;SDS011;10765;50.954;5.322;2022-09-03T05:08:31;3.93;;;1.70;;
21215;SDS011;10765;50.954;5.322;2022-09-03T05:11:00;1.67;;;1.50;;
21215;SDS011;10765;50.954;5.322;2022-09-03T05:13:28;3.23;;;1.50;;
21215;SDS011;10765;50.954;5.322;2022-09-03T05:15:57;2.70;;;1.50;;
21215;SDS011;10765;50.954;5.322;2022-09-03T05:18:26;2.60;;;1.40;;
21215;SDS011;10765;50.954;5.322;2022-09-03T05:20:56;3.40;;;1.53;;
21215;SDS011;10765;50.954;5.322;2022-09-03T05:23:24;3.43;;;1.70;;
21215;SDS011;10765;50.954;5.322;2022-09-03T05:25:55;2.83;;;1.77;;
21215;SDS011;10765;50.954;5.322;2022-09-03T05:28:23;3.07;;;1.90;;
21215;SDS011;10765;50.954;5.322;2022-09-03T05:30:57;4.03;;;2.00;;
21215;SDS011;10765;50.954;5.322;2022-09-03T05:33:24;2.53;;;1.43;;
21215;SDS011;10765;50.954;5.322;2022-09-03T05:35:52;3.57;;;1.83;;
21215;SDS011;10765;50.954;5.322;2022-09-03T05:38:19;3.37;;;1.93;;
21215;SDS011;10765;50.954;5.322;2022-09-03T05:40:45;2.33;;;1.80;;
21215;SDS011;10765;50.954;5.322;2022-09-03T05:43:14;2.43;;;1.83;;
21215;SDS011;10765;50.954;5.322;2022-09-03T05:45:41;2.40;;;1.60;;
21215;SDS011;10765;50.954;5.322;2022-09-03T05:48:08;3.33;;;1.67;;
21215;SDS011;10765;50.954;5.322;2022-09-03T05:50:35;4.83;;;1.77;;
21215;SDS011;10765;50.954;5.322;2022-09-03T05:53:02;4.33;;;2.00;;
21215;SDS011;10765;50.954;5.322;2022-09-03T05:55:29;2.63;;;1.70;;
21215;SDS011;10765;50.954;5.322;2022-09-03T05:57:55;1.53;;;1.43;;
21215;SDS011;10765;50.954;5.322;2022-09-03T06:00:24;5.13;;;1.67;;
21215;SDS011;10765;50.954;5.322;2022-09-03T06:02:51;4.53;;;2.10;;
21215;SDS011;10765;50.954;5.322;2022-09-03T06:05:19;3.63;;;1.67;;
21215;SDS011;10765;50.954;5.322;2022-09-03T06:07:46;2.20;;;1.60;;
21215;SDS011;10765;50.954;5.322;2022-09-03T06:10:13;4.37;;;1.50;;
21215;SDS011;10765;50.954;5.322;2022-09-03T06:12:41;3.90;;;1.73;;
21215;SDS011;10765;50.954;5.322;2022-09-03T06:15:13;3.63;;;2.03;;
21215;SDS011;10765;50.954;5.322;2022-09-03T06:17:42;4.93;;;1.80;;
21215;SDS011;10765;50.954;5.322;2022-09-03T06:20:09;3.87;;;1.73;;
21215;SDS011;10765;50.954;5.322;2022-09-03T06:22:36;4.97;;;1.77;;
21215;SDS011;10765;50.954;5.322;2022-09-03T06:25:03;4.67;;;1.70;;
21215;SDS011;10765;50.954;5.322;2022-09-03T06:27:31;4.73;;;2.00;;
21215;SDS011;10765;50.954;5.322;2022-09-03T06:29:58;6.10;;;1.97;;
21215;SDS011;10765;50.954;5.322;2022-09-03T06:32:25;3.40;;;1.90;;
21215;SDS011;10765;50.954;5.322;2022-09-03T06:34:54;3.90;;;1.70;;
21215;SDS011;10765;50.954;5.322;2022-09-03T06:37:21;2.63;;;1.60;;
21215;SDS011;10765;50.954;5.322;2022-09-03T06:39:48;3.70;;;1.70;;
21215;SDS011;10765;50.954;5.322;2022-09-03T06:42:15;3.50;;;1.50;;
21215;SDS011;10765;50.954;5.322;2022-09-03T06:44:42;3.60;;;1.90;;
21215;SDS011;10765;50.954;5.322;2022-09-03T06:47:10;5.07;;;2.23;;
21215;SDS011;10765;50.954;5.322;2022-09-03T06:49:37;3.33;;;2.03;;
21215;SDS011;10765;50.954;5.322;2022-09-03T06:52:05;3.47;;;1.77;;
21215;SDS011;10765;50.954;5.322;2022-09-03T06:54:32;5.33;;;1.83;;
21215;SDS011;10765;50.954;5.322;2022-09-03T06:56:58;6.37;;;2.07;;
21215;SDS011;10765;50.954;5.322;2022-09-03T06:59:25;2.93;;;1.90;;
21215;SDS011;10765;50.954;5.322;2022-09-03T07:01:52;4.23;;;1.83;;
21215;SDS011;10765;50.954;5.322;2022-09-03T07:04:19;9.60;;;2.70;;
21215;SDS011;10765;50.954;5.322;2022-09-03T07:06:48;19.03;;;4.33;;
21215;SDS011;10765;50.954;5.322;2022-09-03T07:09:17;11.13;;;3.00;;
21215;SDS011;10765;50.954;5.322;2022-09-03T07:11:44;14.17;;;3.50;;
21215;SDS011;10765;50.954;5.322;2022-09-03T07:14:15;10.77;;;2.90;;
21215;SDS011;10765;50.954;5.322;2022-09-03T07:16:44;7.23;;;2.30;;
21215;SDS011;10765;50.954;5.322;2022-09-03T07:19:11;8.68;;;2.88;;
21215;SDS011;10765;50.954;5.322;2022-09-03T07:21:38;5.10;;;2.13;;
21215;SDS011;10765;50.954;5.322;2022-09-03T07:24:06;4.13;;;2.10;;
21215;SDS011;10765;50.954;5.322;2022-09-03T07:26:36;7.22;;;1.98;;
21215;SDS011;10765;50.954;5.322;2022-09-03T07:29:04;6.93;;;2.38;;
21215;SDS011;10765;50.954;5.322;2022-09-03T07:31:33;3.27;;;1.97;;
21215;SDS011;10765;50.954;5.322;2022-09-03T07:34:01;4.97;;;2.20;;
21215;SDS011;10765;50.954;5.322;2022-09-03T07:36:30;3.63;;;1.97;;
21215;SDS011;10765;50.954;5.322;2022-09-03T07:39:02;4.27;;;1.80;;
21215;SDS011;10765;50.954;5.322;2022-09-03T07:41:30;3.27;;;1.67;;
21215;SDS011;10765;50.954;5.322;2022-09-03T07:43:58;5.90;;;1.80;;
21215;SDS011;10765;50.954;5.322;2022-09-03T07:46:30;4.18;;;1.80;;
21215;SDS011;10765;50.954;5.322;2022-09-03T07:48:58;3.08;;;1.65;;
21215;SDS011;10765;50.954;5.322;2022-09-03T07:51:27;2.92;;;1.60;;
21215;SDS011;10765;50.954;5.322;2022-09-03T07:53:56;4.45;;;1.60;;
21215;SDS011;10765;50.954;5.322;2022-09-03T07:56:24;4.88;;;1.58;;
21215;SDS011;10765;50.954;5.322;2022-09-03T07:58:52;5.05;;;1.75;;
21215;SDS011;10765;50.954;5.322;2022-09-03T08:01:21;2.40;;;1.70;;
21215;SDS011;10765;50.954;5.322;2022-09-03T08:03:49;3.53;;;1.48;;
21215;SDS011;10765;50.954;5.322;2022-09-03T08:06:18;4.40;;;1.65;;
21215;SDS011;10765;50.954;5.322;2022-09-03T08:08:47;5.95;;;1.60;;
21215;SDS011;10765;50.954;5.322;2022-09-03T08:11:15;3.67;;;1.45;;
21215;SDS011;10765;50.954;5.322;2022-09-03T08:13:46;3.42;;;1.75;;
21215;SDS011;10765;50.954;5.322;2022-09-03T08:16:14;3.75;;;1.60;;
21215;SDS011;10765;50.954;5.322;2022-09-03T08:18:44;3.78;;;1.63;;
21215;SDS011;10765;50.954;5.322;2022-09-03T08:21:15;3.15;;;1.55;;
21215;SDS011;10765;50.954;5.322;2022-09-03T08:23:44;2.80;;;1.80;;
21215;SDS011;10765;50.954;5.322;2022-09-03T08:26:13;6.43;;;1.67;;
21215;SDS011;10765;50.954;5.322;2022-09-03T08:28:41;3.95;;;1.70;;
21215;SDS011;10765;50.954;5.322;2022-09-03T08:31:09;3.03;;;1.70;;
21215;SDS011;10765;50.954;5.322;2022-09-03T08:33:37;3.67;;;1.80;;
21215;SDS011;10765;50.954;5.322;2022-09-03T08:36:09;3.20;;;1.83;;
21215;SDS011;10765;50.954;5.322;2022-09-03T08:38:38;3.00;;;1.80;;
21215;SDS011;10765;50.954;5.322;2022-09-03T08:41:09;2.20;;;1.52;;
21215;SDS011;10765;50.954;5.322;2022-09-03T08:43:49;3.60;;;1.70;;
21215;SDS011;10765;50.954;5.322;2022-09-03T08:46:31;3.80;;;1.60;;
21215;SDS011;10765;50.954;5.322;2022-09-03T08:49:02;2.92;;;1.70;;
21215;SDS011;10765;50.954;5.322;2022-09-03T08:51:31;3.55;;;1.88;;
21215;SDS011;10765;50.954;5.322;2022-09-03T08:54:03;5.18;;;1.95;;
21215;SDS011;10765;50.954;5.322;2022-09-03T08:56:33;2.28;;;1.80;;
21215;SDS011;10765;50.954;5.322;2022-09-03T08:59:04;3.33;;;1.67;;
21215;SDS011;10765;50.954;5.322;2022-09-03T09:01:32;2.80;;;1.67;;
21215;SDS011;10765;50.954;5.322;2022-09-03T09:04:10;4.80;;;1.83;;
21215;SDS011;10765;50.954;5.322;2022-09-03T09:06:50;4.43;;;1.48;;
21215;SDS011;10765;50.954;5.322;2022-09-03T09:09:26;2.60;;;1.73;;
21215;SDS011;10765;50.954;5.322;2022-09-03T09:12:01;6.77;;;1.97;;
21215;SDS011;10765;50.954;5.322;2022-09-03T09:14:38;1.90;;;1.80;;
21215;SDS011;10765;50.954;5.322;2022-09-03T09:17:16;3.17;;;2.10;;
21215;SDS011;10765;50.954;5.322;2022-09-03T09:19:58;3.67;;;1.90;;
21215;SDS011;10765;50.954;5.322;2022-09-03T09:22:37;5.30;;;1.90;;
21215;SDS011;10765;50.954;5.322;2022-09-03T09:25:07;3.65;;;1.80;;
21215;SDS011;10765;50.954;5.322;2022-09-03T09:27:40;1.95;;;1.70;;
21215;SDS011;10765;50.954;5.322;2022-09-03T09:30:16;1.80;;;1.70;;
21215;SDS011;10765;50.954;5.322;2022-09-03T09:32:43;3.50;;;1.77;;
21215;SDS011;10765;50.954;5.322;2022-09-03T09:35:11;1.70;;;1.60;;
21215;SDS011;10765;50.954;5.322;2022-09-03T09:37:50;3.22;;;1.60;;
21215;SDS011;10765;50.954;5.322;2022-09-03T09:40:25;4.47;;;1.63;;
21215;SDS011;10765;50.954;5.322;2022-09-03T09:43:03;1.80;;;1.70;;
21215;SDS011;10765;50.954;5.322;2022-09-03T09:45:35;1.83;;;1.73;;
21215;SDS011;10765;50.954;5.322;2022-09-03T09:48:07;3.28;;;2.00;;
21215;SDS011;10765;50.954;5.322;2022-09-03T09:50:38;2.85;;;1.80;;
21215;SDS011;10765;50.954;5.322;2022-09-03T09:53:08;1.83;;;1.67;;
21215;SDS011;10765;50.954;5.322;2022-09-03T09:55:50;2.67;;;1.77;;
21215;SDS011;10765;50.954;5.322;2022-09-03T09:58:22;1.92;;;1.83;;
21215;SDS011;10765;50.954;5.322;2022-09-03T10:00:54;2.08;;;1.90;;
21215;SDS011;10765;50.954;5.322;2022-09-03T10:03:22;1.85;;;1.67;;
21215;SDS011;10765;50.954;5.322;2022-09-03T10:08:49;1.95;;;1.77;;
21215;SDS011;10765;50.954;5.322;2022-09-03T10:11:17;3.30;;;1.80;;
21215;SDS011;10765;50.954;5.322;2022-09-03T10:13:47;2.80;;;1.85;;
21215;SDS011;10765;50.954;5.322;2022-09-03T10:16:19;2.40;;;1.90;;
21215;SDS011;10765;50.954;5.322;2022-09-03T10:18:53;2.22;;;1.77;;
21215;SDS011;10765;50.954;5.322;2022-09-03T10:21:29;2.65;;;1.90;;
21215;SDS011;10765;50.954;5.322;2022-09-03T10:24:07;2.10;;;1.77;;
21215;SDS011;10765;50.954;5.322;2022-09-03T10:26:45;2.03;;;1.67;;
21215;SDS011;10765;50.954;5.322;2022-09-03T10:29:14;1.98;;;1.88;;
21215;SDS011;10765;50.954;5.322;2022-09-03T10:31:47;2.03;;;1.92;;
21215;SDS011;10765;50.954;5.322;2022-09-03T10:34:27;7.65;;;2.30;;
21215;SDS011;10765;50.954;5.322;2022-09-03T10:37:00;2.38;;;1.80;;
21215;SDS011;10765;50.954;5.322;2022-09-03T10:39:39;2.92;;;1.63;;
21215;SDS011;10765;50.954;5.322;2022-09-03T10:42:17;4.40;;;2.08;;
21215;SDS011;10765;50.954;5.322;2022-09-03T10:44:58;1.92;;;1.60;;
21215;SDS011;10765;50.954;5.322;2022-09-03T10:47:42;1.80;;;1.70;;
21215;SDS011;10765;50.954;5.322;2022-09-03T10:50:33;2.50;;;1.40;;
21215;SDS011;10765;50.954;5.322;2022-09-03T10:53:09;3.00;;;2.00;;
21215;SDS011;10765;50.954;5.322;2022-09-03T10:55:48;1.60;;;1.50;;
21215;SDS011;10765;50.954;5.322;2022-09-03T10:58:28;1.85;;;1.73;;
21215;SDS011;10765;50.954;5.322;2022-09-03T11:01:05;1.77;;;1.67;;
21215;SDS011;10765;50.954;5.322;2022-09-03T11:03:42;2.00;;;1.80;;
21215;SDS011;10765;50.954;5.322;2022-09-03T11:06:12;2.88;;;1.70;;
21215;SDS011;10765;50.954;5.322;2022-09-03T11:08:47;3.17;;;1.75;;
21215;SDS011;10765;50.954;5.322;2022-09-03T11:11:21;3.08;;;1.73;;
21215;SDS011;10765;50.954;5.322;2022-09-03T11:13:54;2.72;;;1.80;;
21215;SDS011;10765;50.954;5.322;2022-09-03T11:16:27;3.55;;;1.73;;
21215;SDS011;10765;50.954;5.322;2022-09-03T11:19:00;3.17;;;1.98;;
21215;SDS011;10765;50.954;5.322;2022-09-03T11:21:30;2.00;;;1.70;;
21215;SDS011;10765;50.954;5.322;2022-09-03T11:24:01;1.90;;;1.80;;
21215;SDS011;10765;50.954;5.322;2022-09-03T11:26:34;1.77;;;1.67;;
21215;SDS011;10765;50.954;5.322;2022-09-03T11:29:03;2.80;;;1.90;;
21215;SDS011;10765;50.954;5.322;2022-09-03T11:31:37;3.45;;;1.90;;
21215;SDS011;10765;50.954;5.322;2022-09-03T11:34:15;3.00;;;2.03;;
21215;SDS011;10765;50.954;5.322;2022-09-03T11:37:02;4.85;;;2.13;;
21215;SDS011;10765;50.954;5.322;2022-09-03T11:39:33;1.98;;;1.77;;
21215;SDS011;10765;50.954;5.322;2022-09-03T11:42:03;1.73;;;1.63;;
21215;SDS011;10765;50.954;5.322;2022-09-03T11:44:36;3.67;;;1.90;;
21215;SDS011;10765;50.954;5.322;2022-09-03T11:47:12;2.40;;;1.70;;
21215;SDS011;10765;50.954;5.322;2022-09-03T11:49:45;2.70;;;1.90;;
21215;SDS011;10765;50.954;5.322;2022-09-03T11:52:23;2.20;;;2.00;;
21215;SDS011;10765;50.954;5.322;2022-09-03T11:54:52;2.13;;;2.03;;
21215;SDS011;10765;50.954;5.322;2022-09-03T11:57:22;4.47;;;2.10;;
21215;SDS011;10765;50.954;5.322;2022-09-03T11:59:53;3.38;;;2.20;;
21215;SDS011;10765;50.954;5.322;2022-09-03T12:02:33;3.88;;;2.10;;
21215;SDS011;10765;50.954;5.322;2022-09-03T12:05:11;2.50;;;2.30;;
21215;SDS011;10765;50.954;5.322;2022-09-03T12:07:55;3.03;;;2.30;;
21215;SDS011;10765;50.954;5.322;2022-09-03T12:10:34;2.30;;;2.10;;
21215;SDS011;10765;50.954;5.322;2022-09-03T12:13:20;4.53;;;2.10;;
21215;SDS011;10765;50.954;5.322;2022-09-03T12:16:21;2.10;;;2.00;;
21215;SDS011;10765;50.954;5.322;2022-09-03T12:19:03;4.78;;;2.08;;
21215;SDS011;10765;50.954;5.322;2022-09-03T12:21:37;3.78;;;2.50;;
21215;SDS011;10765;50.954;5.322;2022-09-03T12:24:05;2.75;;;2.35;;
21215;SDS011;10765;50.954;5.322;2022-09-03T12:26:37;4.18;;;2.22;;
21215;SDS011;10765;50.954;5.322;2022-09-03T12:29:16;4.13;;;2.40;;
21215;SDS011;10765;50.954;5.322;2022-09-03T12:31:48;4.15;;;2.25;;
21215;SDS011;10765;50.954;5.322;2022-09-03T12:34:16;2.67;;;2.20;;
21215;SDS011;10765;50.954;5.322;2022-09-03T12:36:44;4.18;;;2.35;;
21215;SDS011;10765;50.954;5.322;2022-09-03T12:39:13;2.83;;;2.33;;
21215;SDS011;10765;50.954;5.322;2022-09-03T12:41:52;4.10;;;2.30;;
21215;SDS011;10765;50.954;5.322;2022-09-03T12:44:25;2.53;;;2.25;;
21215;SDS011;10765;50.954;5.322;2022-09-03T12:47:03;5.28;;;2.28;;
21215;SDS011;10765;50.954;5.322;2022-09-03T12:49:35;3.20;;;2.60;;
21215;SDS011;10765;50.954;5.322;2022-09-03T12:52:04;4.47;;;2.63;;
21215;SDS011;10765;50.954;5.322;2022-09-03T12:54:42;2.95;;;2.45;;
21215;SDS011;10765;50.954;5.322;2022-09-03T12:57:15;5.93;;;2.40;;
21215;SDS011;10765;50.954;5.322;2022-09-03T12:59:49;2.70;;;2.20;;
21215;SDS011;10765;50.954;5.322;2022-09-03T13:02:22;3.00;;;2.10;;
21215;SDS011;10765;50.954;5.322;2022-09-03T13:04:53;4.00;;;2.40;;
21215;SDS011;10765;50.954;5.322;2022-09-03T13:07:23;2.60;;;2.30;;
21215;SDS011;10765;50.954;5.322;2022-09-03T13:09:57;2.60;;;2.40;;
21215;SDS011;10765;50.954;5.322;2022-09-03T13:12:29;4.27;;;2.90;;
21215;SDS011;10765;50.954;5.322;2022-09-03T13:15:05;4.23;;;2.30;;
21215;SDS011;10765;50.954;5.322;2022-09-03T13:17:38;3.73;;;2.30;;
21215;SDS011;10765;50.954;5.322;2022-09-03T13:20:32;2.70;;;2.00;;
21215;SDS011;10765;50.954;5.322;2022-09-03T13:23:09;2.20;;;2.10;;
21215;SDS011;10765;50.954;5.322;2022-09-03T13:25:56;4.28;;;2.25;;
21215;SDS011;10765;50.954;5.322;2022-09-03T13:28:36;2.70;;;2.45;;
21215;SDS011;10765;50.954;5.322;2022-09-03T13:31:23;2.38;;;2.17;;
21215;SDS011;10765;50.954;5.322;2022-09-03T13:33:57;2.60;;;2.40;;
21215;SDS011;10765;50.954;5.322;2022-09-03T13:36:28;3.45;;;2.08;;
21215;SDS011;10765;50.954;5.322;2022-09-03T13:39:01;2.70;;;1.90;;
21215;SDS011;10765;50.954;5.322;2022-09-03T13:41:34;3.30;;;2.30;;
21215;SDS011;10765;50.954;5.322;2022-09-03T13:44:06;2.40;;;2.20;;
21215;SDS011;10765;50.954;5.322;2022-09-03T13:46:42;2.17;;;2.03;;
21215;SDS011;10765;50.954;5.322;2022-09-03T13:52:07;2.65;;;2.20;;
21215;SDS011;10765;50.954;5.322;2022-09-03T13:54:48;3.63;;;2.25;;
21215;SDS011;10765;50.954;5.322;2022-09-03T13:57:26;2.13;;;2.00;;
21215;SDS011;10765;50.954;5.322;2022-09-03T14:00:00;2.22;;;2.10;;
21215;SDS011;10765;50.954;5.322;2022-09-03T14:02:36;3.97;;;2.40;;
21215;SDS011;10765;50.954;5.322;2022-09-03T14:05:16;2.47;;;2.28;;
21215;SDS011;10765;50.954;5.322;2022-09-03T14:07:55;4.88;;;2.55;;
21215;SDS011;10765;50.954;5.322;2022-09-03T14:10:33;4.13;;;2.50;;
21215;SDS011;10765;50.954;5.322;2022-09-03T14:13:13;3.35;;;2.40;;
21215;SDS011;10765;50.954;5.322;2022-09-03T14:15:55;3.38;;;2.67;;
21215;SDS011;10765;50.954;5.322;2022-09-03T14:18:34;2.53;;;2.33;;
21215;SDS011;10765;50.954;5.322;2022-09-03T14:21:09;4.03;;;2.57;;
21215;SDS011;10765;50.954;5.322;2022-09-03T14:23:41;2.47;;;2.27;;
21215;SDS011;10765;50.954;5.322;2022-09-03T14:26:15;3.53;;;2.43;;
21215;SDS011;10765;50.954;5.322;2022-09-03T14:28:45;4.43;;;2.47;;
21215;SDS011;10765;50.954;5.322;2022-09-03T14:31:17;3.60;;;2.40;;
21215;SDS011;10765;50.954;5.322;2022-09-03T14:33:54;2.40;;;2.20;;
21215;SDS011;10765;50.954;5.322;2022-09-03T14:36:29;4.37;;;2.60;;
21215;SDS011;10765;50.954;5.322;2022-09-03T14:39:14;4.73;;;2.63;;
21215;SDS011;10765;50.954;5.322;2022-09-03T14:42:00;3.00;;;2.70;;
21215;SDS011;10765;50.954;5.322;2022-09-03T14:44:47;2.63;;;2.20;;
21215;SDS011;10765;50.954;5.322;2022-09-03T14:47:37;3.67;;;2.30;;
21215;SDS011;10765;50.954;5.322;2022-09-03T14:50:31;2.73;;;2.37;;
21215;SDS011;10765;50.954;5.322;2022-09-03T14:53:13;2.37;;;2.17;;
21215;SDS011;10765;50.954;5.322;2022-09-03T14:56:15;3.97;;;2.63;;
21215;SDS011;10765;50.954;5.322;2022-09-03T14:58:59;2.50;;;2.30;;
21215;SDS011;10765;50.954;5.322;2022-09-03T15:01:51;3.73;;;2.60;;
21215;SDS011;10765;50.954;5.322;2022-09-03T15:04:37;2.80;;;2.57;;
21215;SDS011;10765;50.954;5.322;2022-09-03T15:07:20;3.03;;;2.20;;
21215;SDS011;10765;50.954;5.322;2022-09-03T15:09:58;4.73;;;2.60;;
21215;SDS011;10765;50.954;5.322;2022-09-03T15:12:33;3.80;;;2.50;;
21215;SDS011;10765;50.954;5.322;2022-09-03T15:15:04;3.33;;;2.33;;
21215;SDS011;10765;50.954;5.322;2022-09-03T15:17:43;2.47;;;2.27;;
21215;SDS011;10765;50.954;5.322;2022-09-03T15:20:19;2.67;;;2.47;;
21215;SDS011;10765;50.954;5.322;2022-09-03T15:23:01;6.13;;;2.73;;
21215;SDS011;10765;50.954;5.322;2022-09-03T15:28:45;3.20;;;2.50;;
21215;SDS011;10765;50.954;5.322;2022-09-03T15:31:21;3.30;;;2.40;;